sensor_id;sensor_type;location;lat;lon;timestamp;temperature;humidity
67641;SHT31;54434;50.096;20.082;2023-11-22T00:00:14;0.94;83.58
67641;SHT31;54434;50.096;20.082;2023-11-22T00:03:13;0.93;83.70
67641;SHT31;54434;50.096;20.082;2023-11-22T00:05:49;0.93;83.68
67641;SHT31;54434;50.096;20.082;2023-11-22T00:08:26;0.93;83.76
67641;SHT31;54434;50.096;20.082;2023-11-22T00:11:03;0.93;83.88
67641;SHT31;54434;50.096;20.082;2023-11-22T00:13:40;0.94;83.99
67641;SHT31;54434;50.096;20.082;2023-11-22T00:16:17;0.93;83.96
67641;SHT31;54434;50.096;20.082;2023-11-22T00:18:54;0.92;83.90
67641;SHT31;54434;50.096;20.082;2023-11-22T00:21:32;0.90;83.83
67641;SHT31;54434;50.096;20.082;2023-11-22T00:24:09;0.88;83.77
67641;SHT31;54434;50.096;20.082;2023-11-22T00:26:46;0.84;83.57
67641;SHT31;54434;50.096;20.082;2023-11-22T00:29:22;0.82;83.61
67641;SHT31;54434;50.096;20.082;2023-11-22T00:31:59;0.80;83.75
67641;SHT31;54434;50.096;20.082;2023-11-22T00:34:36;0.77;83.77
67641;SHT31;54434;50.096;20.082;2023-11-22T00:37:13;0.74;83.87
67641;SHT31;54434;50.096;20.082;2023-11-22T00:39:49;0.69;83.99
67641;SHT31;54434;50.096;20.082;2023-11-22T00:42:26;0.65;84.13
67641;SHT31;54434;50.096;20.082;2023-11-22T00:45:02;0.63;84.23
67641;SHT31;54434;50.096;20.082;2023-11-22T00:47:41;0.60;84.27
67641;SHT31;54434;50.096;20.082;2023-11-22T00:50:18;0.59;84.20
67641;SHT31;54434;50.096;20.082;2023-11-22T00:52:54;0.57;84.14
67641;SHT31;54434;50.096;20.082;2023-11-22T00:55:31;0.56;84.13
67641;SHT31;54434;50.096;20.082;2023-11-22T00:58:07;0.55;84.21
67641;SHT31;54434;50.096;20.082;2023-11-22T01:00:44;0.55;84.30
67641;SHT31;54434;50.096;20.082;2023-11-22T01:03:21;0.56;84.39
67641;SHT31;54434;50.096;20.082;2023-11-22T01:05:57;0.56;84.41
67641;SHT31;54434;50.096;20.082;2023-11-22T01:08:34;0.53;84.24
67641;SHT31;54434;50.096;20.082;2023-11-22T01:11:11;0.53;84.30
67641;SHT31;54434;50.096;20.082;2023-11-22T01:13:47;0.53;84.28
67641;SHT31;54434;50.096;20.082;2023-11-22T01:16:24;0.50;84.06
67641;SHT31;54434;50.096;20.082;2023-11-22T01:19:00;0.45;83.69
67641;SHT31;54434;50.096;20.082;2023-11-22T01:21:37;0.43;83.78
67641;SHT31;54434;50.096;20.082;2023-11-22T01:24:13;0.42;84.01
67641;SHT31;54434;50.096;20.082;2023-11-22T01:26:51;0.41;84.10
67641;SHT31;54434;50.096;20.082;2023-11-22T01:29:28;0.40;84.11
67641;SHT31;54434;50.096;20.082;2023-11-22T01:32:07;0.39;84.19
67641;SHT31;54434;50.096;20.082;2023-11-22T01:34:44;0.40;84.26
67641;SHT31;54434;50.096;20.082;2023-11-22T01:37:21;0.40;84.28
67641;SHT31;54434;50.096;20.082;2023-11-22T01:40:00;0.38;84.02
67641;SHT31;54434;50.096;20.082;2023-11-22T01:42:40;0.37;84.09
67641;SHT31;54434;50.096;20.082;2023-11-22T01:45:18;0.37;84.24
67641;SHT31;54434;50.096;20.082;2023-11-22T01:47:54;0.40;84.35
67641;SHT31;54434;50.096;20.082;2023-11-22T01:50:33;0.39;84.19
67641;SHT31;54434;50.096;20.082;2023-11-22T01:53:12;0.38;84.19
67641;SHT31;54434;50.096;20.082;2023-11-22T01:55:53;0.37;84.14
67641;SHT31;54434;50.096;20.082;2023-11-22T01:58:30;0.35;84.03
67641;SHT31;54434;50.096;20.082;2023-11-22T02:01:07;0.34;83.88
67641;SHT31;54434;50.096;20.082;2023-11-22T02:03:46;0.32;83.92
67641;SHT31;54434;50.096;20.082;2023-11-22T02:06:24;0.32;83.99
67641;SHT31;54434;50.096;20.082;2023-11-22T02:09:03;0.30;83.89
67641;SHT31;54434;50.096;20.082;2023-11-22T02:11:45;0.28;83.89
67641;SHT31;54434;50.096;20.082;2023-11-22T02:14:21;0.27;83.93
67641;SHT31;54434;50.096;20.082;2023-11-22T02:16:58;0.23;83.81
67641;SHT31;54434;50.096;20.082;2023-11-22T02:19:34;0.22;83.94
67641;SHT31;54434;50.096;20.082;2023-11-22T02:22:11;0.21;83.92
67641;SHT31;54434;50.096;20.082;2023-11-22T02:24:48;0.19;83.81
67641;SHT31;54434;50.096;20.082;2023-11-22T02:27:25;0.19;83.82
67641;SHT31;54434;50.096;20.082;2023-11-22T02:30:01;0.18;83.57
67641;SHT31;54434;50.096;20.082;2023-11-22T02:32:39;0.16;83.57
67641;SHT31;54434;50.096;20.082;2023-11-22T02:35:17;0.14;83.54
67641;SHT31;54434;50.096;20.082;2023-11-22T02:37:54;0.13;83.65
67641;SHT31;54434;50.096;20.082;2023-11-22T02:40:31;0.10;83.70
67641;SHT31;54434;50.096;20.082;2023-11-22T02:43:07;0.10;83.65
67641;SHT31;54434;50.096;20.082;2023-11-22T02:45:44;0.08;83.65
67641;SHT31;54434;50.096;20.082;2023-11-22T02:48:20;0.07;83.75
67641;SHT31;54434;50.096;20.082;2023-11-22T02:50:56;0.06;83.64
67641;SHT31;54434;50.096;20.082;2023-11-22T02:53:34;0.07;83.56
67641;SHT31;54434;50.096;20.082;2023-11-22T02:56:11;0.07;83.55
67641;SHT31;54434;50.096;20.082;2023-11-22T02:58:48;0.09;83.63
67641;SHT31;54434;50.096;20.082;2023-11-22T03:01:25;0.09;83.68
67641;SHT31;54434;50.096;20.082;2023-11-22T03:04:02;0.13;83.77
67641;SHT31;54434;50.096;20.082;2023-11-22T03:06:40;0.12;83.67
67641;SHT31;54434;50.096;20.082;2023-11-22T03:09:17;0.13;83.50
67641;SHT31;54434;50.096;20.082;2023-11-22T03:11:54;0.12;83.51
67641;SHT31;54434;50.096;20.082;2023-11-22T03:14:31;0.12;83.58
67641;SHT31;54434;50.096;20.082;2023-11-22T03:17:08;0.12;83.37
67641;SHT31;54434;50.096;20.082;2023-11-22T03:19:47;0.13;83.31
67641;SHT31;54434;50.096;20.082;2023-11-22T03:22:24;0.15;83.39
67641;SHT31;54434;50.096;20.082;2023-11-22T03:25:05;0.17;83.35
67641;SHT31;54434;50.096;20.082;2023-11-22T03:27:44;0.16;83.21
67641;SHT31;54434;50.096;20.082;2023-11-22T03:30:20;0.16;83.17
67641;SHT31;54434;50.096;20.082;2023-11-22T03:32:57;0.16;82.71
67641;SHT31;54434;50.096;20.082;2023-11-22T03:35:33;0.14;82.59
67641;SHT31;54434;50.096;20.082;2023-11-22T03:38:10;0.13;82.53
67641;SHT31;54434;50.096;20.082;2023-11-22T03:40:47;0.13;82.56
67641;SHT31;54434;50.096;20.082;2023-11-22T03:43:25;0.12;82.60
67641;SHT31;54434;50.096;20.082;2023-11-22T03:46:01;0.13;82.77
67641;SHT31;54434;50.096;20.082;2023-11-22T03:48:38;0.11;82.58
67641;SHT31;54434;50.096;20.082;2023-11-22T03:51:14;0.07;82.51
67641;SHT31;54434;50.096;20.082;2023-11-22T03:53:52;0.08;82.63
67641;SHT31;54434;50.096;20.082;2023-11-22T03:56:29;0.08;82.41
67641;SHT31;54434;50.096;20.082;2023-11-22T03:59:05;0.06;82.02
67641;SHT31;54434;50.096;20.082;2023-11-22T04:01:42;0.04;82.08
67641;SHT31;54434;50.096;20.082;2023-11-22T04:04:19;0.03;81.96
67641;SHT31;54434;50.096;20.082;2023-11-22T04:06:55;-0.00;81.94
67641;SHT31;54434;50.096;20.082;2023-11-22T04:09:32;0.00;82.22
67641;SHT31;54434;50.096;20.082;2023-11-22T04:12:09;0.00;82.26
67641;SHT31;54434;50.096;20.082;2023-11-22T04:14:45;-0.00;82.04
67641;SHT31;54434;50.096;20.082;2023-11-22T04:17:23;-0.02;81.94
67641;SHT31;54434;50.096;20.082;2023-11-22T04:20:00;-0.02;82.00
67641;SHT31;54434;50.096;20.082;2023-11-22T04:22:41;-0.01;81.82
67641;SHT31;54434;50.096;20.082;2023-11-22T04:25:18;-0.02;81.64
67641;SHT31;54434;50.096;20.082;2023-11-22T04:27:57;-0.01;81.71
67641;SHT31;54434;50.096;20.082;2023-11-22T04:30:34;-0.00;81.77
67641;SHT31;54434;50.096;20.082;2023-11-22T04:33:10;-0.01;81.75
67641;SHT31;54434;50.096;20.082;2023-11-22T04:35:47;-0.00;81.68
67641;SHT31;54434;50.096;20.082;2023-11-22T04:38:24;0.00;81.68
67641;SHT31;54434;50.096;20.082;2023-11-22T04:41:00;0.01;81.68
67641;SHT31;54434;50.096;20.082;2023-11-22T04:43:37;0.02;81.84
67641;SHT31;54434;50.096;20.082;2023-11-22T04:46:13;0.04;82.03
67641;SHT31;54434;50.096;20.082;2023-11-22T04:48:50;0.04;82.02
67641;SHT31;54434;50.096;20.082;2023-11-22T04:51:27;0.05;82.04
67641;SHT31;54434;50.096;20.082;2023-11-22T04:54:05;0.05;82.21
67641;SHT31;54434;50.096;20.082;2023-11-22T04:56:41;0.06;82.34
67641;SHT31;54434;50.096;20.082;2023-11-22T04:59:18;0.05;82.08
67641;SHT31;54434;50.096;20.082;2023-11-22T05:01:54;0.04;82.14
67641;SHT31;54434;50.096;20.082;2023-11-22T05:04:31;0.02;82.15
67641;SHT31;54434;50.096;20.082;2023-11-22T05:07:08;0.03;82.28
67641;SHT31;54434;50.096;20.082;2023-11-22T05:09:45;0.03;82.21
67641;SHT31;54434;50.096;20.082;2023-11-22T05:12:22;0.04;82.28
67641;SHT31;54434;50.096;20.082;2023-11-22T05:14:58;0.05;82.02
67641;SHT31;54434;50.096;20.082;2023-11-22T05:17:35;0.04;81.70
67641;SHT31;54434;50.096;20.082;2023-11-22T05:20:12;0.01;81.55
67641;SHT31;54434;50.096;20.082;2023-11-22T05:22:48;0.00;81.73
67641;SHT31;54434;50.096;20.082;2023-11-22T05:25:25;-0.02;81.67
67641;SHT31;54434;50.096;20.082;2023-11-22T05:28:02;-0.05;81.72
67641;SHT31;54434;50.096;20.082;2023-11-22T05:30:39;-0.06;81.68
67641;SHT31;54434;50.096;20.082;2023-11-22T05:33:15;-0.06;81.84
67641;SHT31;54434;50.096;20.082;2023-11-22T05:35:52;-0.05;81.78
67641;SHT31;54434;50.096;20.082;2023-11-22T05:38:28;-0.07;81.63
67641;SHT31;54434;50.096;20.082;2023-11-22T05:41:06;-0.08;81.70
67641;SHT31;54434;50.096;20.082;2023-11-22T05:43:43;-0.10;81.67
67641;SHT31;54434;50.096;20.082;2023-11-22T05:46:20;-0.11;81.62
67641;SHT31;54434;50.096;20.082;2023-11-22T05:48:57;-0.12;81.82
67641;SHT31;54434;50.096;20.082;2023-11-22T05:51:34;-0.12;81.79
67641;SHT31;54434;50.096;20.082;2023-11-22T05:54:10;-0.14;81.65
67641;SHT31;54434;50.096;20.082;2023-11-22T05:56:48;-0.13;81.78
67641;SHT31;54434;50.096;20.082;2023-11-22T05:59:26;-0.15;81.74
67641;SHT31;54434;50.096;20.082;2023-11-22T06:02:03;-0.14;81.85
67641;SHT31;54434;50.096;20.082;2023-11-22T06:04:40;-0.15;81.89
67641;SHT31;54434;50.096;20.082;2023-11-22T06:07:17;-0.16;81.88
67641;SHT31;54434;50.096;20.082;2023-11-22T06:09:54;-0.16;81.81
67641;SHT31;54434;50.096;20.082;2023-11-22T06:12:30;-0.18;81.72
67641;SHT31;54434;50.096;20.082;2023-11-22T06:15:09;-0.21;81.69
67641;SHT31;54434;50.096;20.082;2023-11-22T06:17:45;-0.22;81.81
67641;SHT31;54434;50.096;20.082;2023-11-22T06:20:23;-0.21;81.60
67641;SHT31;54434;50.096;20.082;2023-11-22T06:23:00;-0.21;81.63
67641;SHT31;54434;50.096;20.082;2023-11-22T06:25:37;-0.23;81.66
67641;SHT31;54434;50.096;20.082;2023-11-22T06:28:14;-0.22;81.78
67641;SHT31;54434;50.096;20.082;2023-11-22T06:30:51;-0.22;81.67
67641;SHT31;54434;50.096;20.082;2023-11-22T06:33:27;-0.22;81.55
67641;SHT31;54434;50.096;20.082;2023-11-22T06:36:05;-0.23;81.57
67641;SHT31;54434;50.096;20.082;2023-11-22T06:38:43;-0.23;81.47
67641;SHT31;54434;50.096;20.082;2023-11-22T06:41:20;-0.26;80.99
67641;SHT31;54434;50.096;20.082;2023-11-22T06:43:57;-0.27;81.14
67641;SHT31;54434;50.096;20.082;2023-11-22T06:46:35;-0.28;81.07
67641;SHT31;54434;50.096;20.082;2023-11-22T06:49:12;-0.30;80.29
67641;SHT31;54434;50.096;20.082;2023-11-22T06:51:49;-0.33;80.17
67641;SHT31;54434;50.096;20.082;2023-11-22T06:54:26;-0.32;80.36
67641;SHT31;54434;50.096;20.082;2023-11-22T06:57:03;-0.31;80.40
67641;SHT31;54434;50.096;20.082;2023-11-22T06:59:40;-0.32;80.11
67641;SHT31;54434;50.096;20.082;2023-11-22T07:02:17;-0.33;80.22
67641;SHT31;54434;50.096;20.082;2023-11-22T07:04:53;-0.35;79.90
67641;SHT31;54434;50.096;20.082;2023-11-22T07:07:31;-0.37;80.00
67641;SHT31;54434;50.096;20.082;2023-11-22T07:10:09;-0.37;80.04
67641;SHT31;54434;50.096;20.082;2023-11-22T07:12:47;-0.34;80.41
67641;SHT31;54434;50.096;20.082;2023-11-22T07:15:23;-0.33;80.17
67641;SHT31;54434;50.096;20.082;2023-11-22T07:18:00;-0.33;79.85
67641;SHT31;54434;50.096;20.082;2023-11-22T07:20:38;-0.31;79.92
67641;SHT31;54434;50.096;20.082;2023-11-22T07:23:15;-0.31;79.77
67641;SHT31;54434;50.096;20.082;2023-11-22T07:25:52;-0.31;79.50
67641;SHT31;54434;50.096;20.082;2023-11-22T07:28:28;-0.31;79.59
67641;SHT31;54434;50.096;20.082;2023-11-22T07:31:09;-0.31;79.38
67641;SHT31;54434;50.096;20.082;2023-11-22T07:33:46;-0.29;79.11
67641;SHT31;54434;50.096;20.082;2023-11-22T07:36:23;-0.28;79.33
67641;SHT31;54434;50.096;20.082;2023-11-22T07:39:00;-0.23;79.77
67641;SHT31;54434;50.096;20.082;2023-11-22T07:41:37;-0.22;79.35
67641;SHT31;54434;50.096;20.082;2023-11-22T07:44:14;-0.23;78.91
67641;SHT31;54434;50.096;20.082;2023-11-22T07:46:50;-0.23;78.87
67641;SHT31;54434;50.096;20.082;2023-11-22T07:49:27;-0.23;78.82
67641;SHT31;54434;50.096;20.082;2023-11-22T07:52:05;-0.22;79.00
67641;SHT31;54434;50.096;20.082;2023-11-22T07:54:46;-0.22;79.03
67641;SHT31;54434;50.096;20.082;2023-11-22T07:57:21;-0.19;79.23
67641;SHT31;54434;50.096;20.082;2023-11-22T07:59:57;-0.17;79.17
67641;SHT31;54434;50.096;20.082;2023-11-22T08:02:44;-0.14;79.24
67641;SHT31;54434;50.096;20.082;2023-11-22T08:05:21;-0.13;79.46
67641;SHT31;54434;50.096;20.082;2023-11-22T08:08:00;-0.10;79.44
67641;SHT31;54434;50.096;20.082;2023-11-22T08:10:40;-0.07;79.17
67641;SHT31;54434;50.096;20.082;2023-11-22T08:13:17;-0.05;79.23
67641;SHT31;54434;50.096;20.082;2023-11-22T08:15:54;-0.03;79.33
67641;SHT31;54434;50.096;20.082;2023-11-22T08:18:31;-0.03;79.01
67641;SHT31;54434;50.096;20.082;2023-11-22T08:21:08;-0.01;79.17
67641;SHT31;54434;50.096;20.082;2023-11-22T08:23:45;0.01;79.40
67641;SHT31;54434;50.096;20.082;2023-11-22T08:26:21;0.00;79.42
67641;SHT31;54434;50.096;20.082;2023-11-22T08:28:58;-0.00;79.46
67641;SHT31;54434;50.096;20.082;2023-11-22T08:31:34;-0.00;79.48
67641;SHT31;54434;50.096;20.082;2023-11-22T08:34:11;-0.01;79.23
67641;SHT31;54434;50.096;20.082;2023-11-22T08:36:48;-0.04;79.15
67641;SHT31;54434;50.096;20.082;2023-11-22T08:39:29;-0.04;79.69
67641;SHT31;54434;50.096;20.082;2023-11-22T08:42:06;-0.03;79.61
67641;SHT31;54434;50.096;20.082;2023-11-22T08:44:45;-0.01;79.70
67641;SHT31;54434;50.096;20.082;2023-11-22T08:47:22;0.00;79.48
67641;SHT31;54434;50.096;20.082;2023-11-22T08:49:58;-0.01;79.00
67641;SHT31;54434;50.096;20.082;2023-11-22T08:52:37;-0.01;79.23
67641;SHT31;54434;50.096;20.082;2023-11-22T08:55:14;0.02;78.98
67641;SHT31;54434;50.096;20.082;2023-11-22T08:57:53;0.03;78.73
67641;SHT31;54434;50.096;20.082;2023-11-22T09:00:31;0.07;78.78
67641;SHT31;54434;50.096;20.082;2023-11-22T09:03:07;0.13;78.54
67641;SHT31;54434;50.096;20.082;2023-11-22T09:05:45;0.14;77.66
67641;SHT31;54434;50.096;20.082;2023-11-22T09:08:22;0.17;77.33
67641;SHT31;54434;50.096;20.082;2023-11-22T09:11:02;0.19;77.06
67641;SHT31;54434;50.096;20.082;2023-11-22T09:13:39;0.22;77.45
67641;SHT31;54434;50.096;20.082;2023-11-22T09:16:17;0.26;77.46
67641;SHT31;54434;50.096;20.082;2023-11-22T09:18:56;0.25;77.10
67641;SHT31;54434;50.096;20.082;2023-11-22T09:21:33;0.26;77.30
67641;SHT31;54434;50.096;20.082;2023-11-22T09:24:10;0.28;77.34
67641;SHT31;54434;50.096;20.082;2023-11-22T09:26:48;0.26;77.31
67641;SHT31;54434;50.096;20.082;2023-11-22T09:29:24;0.25;77.50
67641;SHT31;54434;50.096;20.082;2023-11-22T09:32:01;0.27;77.84
67641;SHT31;54434;50.096;20.082;2023-11-22T09:34:39;0.26;77.98
67641;SHT31;54434;50.096;20.082;2023-11-22T09:37:16;0.25;78.16
67641;SHT31;54434;50.096;20.082;2023-11-22T09:39:52;0.24;78.34
67641;SHT31;54434;50.096;20.082;2023-11-22T09:42:31;0.26;78.53
67641;SHT31;54434;50.096;20.082;2023-11-22T09:45:09;0.29;78.73
67641;SHT31;54434;50.096;20.082;2023-11-22T09:47:49;0.28;78.72
67641;SHT31;54434;50.096;20.082;2023-11-22T09:50:29;0.25;78.39
67641;SHT31;54434;50.096;20.082;2023-11-22T09:53:17;0.21;78.21
67641;SHT31;54434;50.096;20.082;2023-11-22T09:56:04;0.18;77.81
67641;SHT31;54434;50.096;20.082;2023-11-22T09:58:45;0.16;78.35
67641;SHT31;54434;50.096;20.082;2023-11-22T10:01:26;0.16;78.15
67641;SHT31;54434;50.096;20.082;2023-11-22T10:04:05;0.17;78.22
67641;SHT31;54434;50.096;20.082;2023-11-22T10:06:43;0.17;78.31
67641;SHT31;54434;50.096;20.082;2023-11-22T10:09:20;0.18;78.00
67641;SHT31;54434;50.096;20.082;2023-11-22T10:11:59;0.19;77.93
67641;SHT31;54434;50.096;20.082;2023-11-22T10:14:39;0.19;77.95
67641;SHT31;54434;50.096;20.082;2023-11-22T10:17:15;0.19;77.86
67641;SHT31;54434;50.096;20.082;2023-11-22T10:19:53;0.20;77.71
67641;SHT31;54434;50.096;20.082;2023-11-22T10:22:30;0.20;77.61
67641;SHT31;54434;50.096;20.082;2023-11-22T10:25:19;0.17;77.57
67641;SHT31;54434;50.096;20.082;2023-11-22T10:27:56;0.14;77.52
67641;SHT31;54434;50.096;20.082;2023-11-22T10:30:33;0.14;77.66
67641;SHT31;54434;50.096;20.082;2023-11-22T10:33:12;0.14;77.61
67641;SHT31;54434;50.096;20.082;2023-11-22T10:35:50;0.15;77.71
67641;SHT31;54434;50.096;20.082;2023-11-22T10:38:27;0.16;77.63
67641;SHT31;54434;50.096;20.082;2023-11-22T10:41:07;0.17;77.86
67641;SHT31;54434;50.096;20.082;2023-11-22T10:43:45;0.18;77.89
67641;SHT31;54434;50.096;20.082;2023-11-22T10:46:25;0.17;77.90
67641;SHT31;54434;50.096;20.082;2023-11-22T10:49:04;0.20;77.88
67641;SHT31;54434;50.096;20.082;2023-11-22T10:51:44;0.24;77.74
67641;SHT31;54434;50.096;20.082;2023-11-22T10:54:24;0.27;77.76
67641;SHT31;54434;50.096;20.082;2023-11-22T10:57:02;0.31;77.68
67641;SHT31;54434;50.096;20.082;2023-11-22T10:59:39;0.34;77.69
67641;SHT31;54434;50.096;20.082;2023-11-22T11:02:21;0.34;77.42
67641;SHT31;54434;50.096;20.082;2023-11-22T11:05:06;0.34;77.19
67641;SHT31;54434;50.096;20.082;2023-11-22T11:07:57;0.36;76.91
67641;SHT31;54434;50.096;20.082;2023-11-22T11:10:43;0.37;76.75
67641;SHT31;54434;50.096;20.082;2023-11-22T11:13:21;0.38;76.93
67641;SHT31;54434;50.096;20.082;2023-11-22T11:16:07;0.38;76.86
67641;SHT31;54434;50.096;20.082;2023-11-22T11:18:48;0.37;76.79
67641;SHT31;54434;50.096;20.082;2023-11-22T11:21:26;0.39;76.70
67641;SHT31;54434;50.096;20.082;2023-11-22T11:24:02;0.42;77.00
67641;SHT31;54434;50.096;20.082;2023-11-22T11:26:40;0.44;76.83
67641;SHT31;54434;50.096;20.082;2023-11-22T11:29:34;0.43;76.99
67641;SHT31;54434;50.096;20.082;2023-11-22T11:32:30;0.43;76.86
67641;SHT31;54434;50.096;20.082;2023-11-22T11:35:08;0.41;76.74
67641;SHT31;54434;50.096;20.082;2023-11-22T11:37:50;0.40;76.69
67641;SHT31;54434;50.096;20.082;2023-11-22T11:40:36;0.37;76.42
67641;SHT31;54434;50.096;20.082;2023-11-22T11:43:13;0.38;76.55
67641;SHT31;54434;50.096;20.082;2023-11-22T11:45:54;0.36;76.55
67641;SHT31;54434;50.096;20.082;2023-11-22T11:48:33;0.39;76.87
67641;SHT31;54434;50.096;20.082;2023-11-22T11:51:11;0.40;76.91
67641;SHT31;54434;50.096;20.082;2023-11-22T11:53:50;0.38;76.63
67641;SHT31;54434;50.096;20.082;2023-11-22T11:56:28;0.36;76.53
67641;SHT31;54434;50.096;20.082;2023-11-22T11:59:06;0.37;76.59
67641;SHT31;54434;50.096;20.082;2023-11-22T12:01:44;0.39;76.76
67641;SHT31;54434;50.096;20.082;2023-11-22T12:04:27;0.38;77.13
67641;SHT31;54434;50.096;20.082;2023-11-22T12:07:09;0.41;76.83
67641;SHT31;54434;50.096;20.082;2023-11-22T12:09:47;0.42;76.54
67641;SHT31;54434;50.096;20.082;2023-11-22T12:12:23;0.43;76.79
67641;SHT31;54434;50.096;20.082;2023-11-22T12:15:00;0.44;76.96
67641;SHT31;54434;50.096;20.082;2023-11-22T12:17:39;0.41;76.83
67641;SHT31;54434;50.096;20.082;2023-11-22T12:20:16;0.39;76.79
67641;SHT31;54434;50.096;20.082;2023-11-22T12:22:53;0.38;76.89
67641;SHT31;54434;50.096;20.082;2023-11-22T12:25:30;0.39;77.06
67641;SHT31;54434;50.096;20.082;2023-11-22T12:28:08;0.36;76.97
67641;SHT31;54434;50.096;20.082;2023-11-22T12:30:46;0.36;76.77
67641;SHT31;54434;50.096;20.082;2023-11-22T12:33:22;0.37;76.72
67641;SHT31;54434;50.096;20.082;2023-11-22T12:36:01;0.41;76.71
67641;SHT31;54434;50.096;20.082;2023-11-22T12:38:41;0.44;76.85
67641;SHT31;54434;50.096;20.082;2023-11-22T12:41:20;0.42;76.60
67641;SHT31;54434;50.096;20.082;2023-11-22T12:44:05;0.41;76.42
67641;SHT31;54434;50.096;20.082;2023-11-22T12:46:48;0.38;76.15
67641;SHT31;54434;50.096;20.082;2023-11-22T12:49:29;0.36;76.41
67641;SHT31;54434;50.096;20.082;2023-11-22T12:52:15;0.36;76.47
67641;SHT31;54434;50.096;20.082;2023-11-22T12:54:58;0.38;76.69
67641;SHT31;54434;50.096;20.082;2023-11-22T12:57:36;0.42;76.96
67641;SHT31;54434;50.096;20.082;2023-11-22T13:00:19;0.44;77.06
67641;SHT31;54434;50.096;20.082;2023-11-22T13:02:56;0.43;76.97
67641;SHT31;54434;50.096;20.082;2023-11-22T13:05:35;0.44;77.10
67641;SHT31;54434;50.096;20.082;2023-11-22T13:08:14;0.45;77.16
67641;SHT31;54434;50.096;20.082;2023-11-22T13:10:53;0.45;76.87
67641;SHT31;54434;50.096;20.082;2023-11-22T13:13:31;0.44;77.11
67641;SHT31;54434;50.096;20.082;2023-11-22T13:16:09;0.43;77.01
67641;SHT31;54434;50.096;20.082;2023-11-22T13:18:48;0.40;77.10
67641;SHT31;54434;50.096;20.082;2023-11-22T13:21:24;0.42;77.37
67641;SHT31;54434;50.096;20.082;2023-11-22T13:24:00;0.42;77.27
67641;SHT31;54434;50.096;20.082;2023-11-22T13:26:38;0.42;77.38
67641;SHT31;54434;50.096;20.082;2023-11-22T13:29:15;0.41;77.30
67641;SHT31;54434;50.096;20.082;2023-11-22T13:31:51;0.41;77.49
67641;SHT31;54434;50.096;20.082;2023-11-22T13:34:27;0.39;77.22
67641;SHT31;54434;50.096;20.082;2023-11-22T13:37:04;0.37;77.32
67641;SHT31;54434;50.096;20.082;2023-11-22T13:39:40;0.38;77.38
67641;SHT31;54434;50.096;20.082;2023-11-22T13:42:16;0.38;77.27
67641;SHT31;54434;50.096;20.082;2023-11-22T13:44:53;0.37;76.97
67641;SHT31;54434;50.096;20.082;2023-11-22T13:47:29;0.35;77.06
67641;SHT31;54434;50.096;20.082;2023-11-22T13:50:07;0.35;76.97
67641;SHT31;54434;50.096;20.082;2023-11-22T13:52:46;0.32;76.95
67641;SHT31;54434;50.096;20.082;2023-11-22T13:55:23;0.30;77.26
67641;SHT31;54434;50.096;20.082;2023-11-22T13:58:00;0.28;77.07
67641;SHT31;54434;50.096;20.082;2023-11-22T14:00:37;0.27;77.09
67641;SHT31;54434;50.096;20.082;2023-11-22T14:03:15;0.25;76.74
67641;SHT31;54434;50.096;20.082;2023-11-22T14:05:51;0.23;76.47
67641;SHT31;54434;50.096;20.082;2023-11-22T14:08:29;0.21;76.47
67641;SHT31;54434;50.096;20.082;2023-11-22T14:11:07;0.18;76.42
67641;SHT31;54434;50.096;20.082;2023-11-22T14:13:43;0.15;76.60
67641;SHT31;54434;50.096;20.082;2023-11-22T14:16:20;0.15;76.76
67641;SHT31;54434;50.096;20.082;2023-11-22T14:18:57;0.14;77.19
67641;SHT31;54434;50.096;20.082;2023-11-22T14:21:34;0.14;77.32
67641;SHT31;54434;50.096;20.082;2023-11-22T14:24:11;0.14;77.06
67641;SHT31;54434;50.096;20.082;2023-11-22T14:26:47;0.13;77.27
67641;SHT31;54434;50.096;20.082;2023-11-22T14:29:24;0.14;77.50
67641;SHT31;54434;50.096;20.082;2023-11-22T14:32:00;0.15;77.32
67641;SHT31;54434;50.096;20.082;2023-11-22T14:34:38;0.12;77.15
67641;SHT31;54434;50.096;20.082;2023-11-22T14:37:16;0.09;77.21
67641;SHT31;54434;50.096;20.082;2023-11-22T14:39:52;0.09;77.36
67641;SHT31;54434;50.096;20.082;2023-11-22T14:42:29;0.08;77.61
67641;SHT31;54434;50.096;20.082;2023-11-22T14:45:07;0.08;77.39
67641;SHT31;54434;50.096;20.082;2023-11-22T14:47:44;0.11;77.42
67641;SHT31;54434;50.096;20.082;2023-11-22T14:50:23;0.12;77.65
67641;SHT31;54434;50.096;20.082;2023-11-22T14:53:00;0.13;77.42
67641;SHT31;54434;50.096;20.082;2023-11-22T14:55:38;0.11;76.86
67641;SHT31;54434;50.096;20.082;2023-11-22T14:58:15;0.12;76.24
67641;SHT31;54434;50.096;20.082;2023-11-22T15:00:51;0.12;76.32
67641;SHT31;54434;50.096;20.082;2023-11-22T15:03:29;0.15;76.62
67641;SHT31;54434;50.096;20.082;2023-11-22T15:06:07;0.14;76.29
67641;SHT31;54434;50.096;20.082;2023-11-22T15:08:43;0.12;76.26
67641;SHT31;54434;50.096;20.082;2023-11-22T15:11:20;0.10;75.96
67641;SHT31;54434;50.096;20.082;2023-11-22T15:13:57;0.08;75.90
67641;SHT31;54434;50.096;20.082;2023-11-22T15:16:34;0.06;75.83
67641;SHT31;54434;50.096;20.082;2023-11-22T15:19:11;0.06;75.47
67641;SHT31;54434;50.096;20.082;2023-11-22T15:21:49;0.06;75.53
67641;SHT31;54434;50.096;20.082;2023-11-22T15:24:30;0.08;75.30
67641;SHT31;54434;50.096;20.082;2023-11-22T15:27:09;0.09;75.40
67641;SHT31;54434;50.096;20.082;2023-11-22T15:29:45;0.08;75.49
67641;SHT31;54434;50.096;20.082;2023-11-22T15:32:21;0.06;75.61
67641;SHT31;54434;50.096;20.082;2023-11-22T15:34:58;0.05;75.66
67641;SHT31;54434;50.096;20.082;2023-11-22T15:37:37;0.03;75.82
67641;SHT31;54434;50.096;20.082;2023-11-22T15:40:14;0.05;75.57
67641;SHT31;54434;50.096;20.082;2023-11-22T15:42:52;0.09;75.27
67641;SHT31;54434;50.096;20.082;2023-11-22T15:45:29;0.09;75.05
67641;SHT31;54434;50.096;20.082;2023-11-22T15:48:07;0.11;74.88
67641;SHT31;54434;50.096;20.082;2023-11-22T15:50:47;0.10;75.14
67641;SHT31;54434;50.096;20.082;2023-11-22T15:53:25;0.08;75.31
67641;SHT31;54434;50.096;20.082;2023-11-22T15:56:01;0.05;75.32
67641;SHT31;54434;50.096;20.082;2023-11-22T15:58:39;0.00;75.18
67641;SHT31;54434;50.096;20.082;2023-11-22T16:01:16;-0.00;75.41
67641;SHT31;54434;50.096;20.082;2023-11-22T16:03:53;-0.03;75.44
67641;SHT31;54434;50.096;20.082;2023-11-22T16:06:30;-0.05;75.67
67641;SHT31;54434;50.096;20.082;2023-11-22T16:09:07;-0.05;75.75
67641;SHT31;54434;50.096;20.082;2023-11-22T16:11:45;-0.08;75.67
67641;SHT31;54434;50.096;20.082;2023-11-22T16:14:21;-0.10;75.50
67641;SHT31;54434;50.096;20.082;2023-11-22T16:16:57;-0.11;75.57
67641;SHT31;54434;50.096;20.082;2023-11-22T16:19:37;-0.10;75.69
67641;SHT31;54434;50.096;20.082;2023-11-22T16:22:13;-0.10;75.52
67641;SHT31;54434;50.096;20.082;2023-11-22T16:24:50;-0.15;75.07
67641;SHT31;54434;50.096;20.082;2023-11-22T16:27:26;-0.18;74.88
67641;SHT31;54434;50.096;20.082;2023-11-22T16:30:03;-0.22;74.89
67641;SHT31;54434;50.096;20.082;2023-11-22T16:32:42;-0.24;74.85